createdAt,value
2022-11-05T00:17:54.792Z,9.43
2022-11-05T00:46:43.426Z,9.32
2022-11-05T01:15:38.849Z,9.22
2022-11-05T01:44:22.442Z,9.13
2022-11-05T02:13:25.064Z,9.14
2022-11-05T02:42:18.776Z,9.21
2022-11-05T03:11:13.268Z,9.07
2022-11-05T03:40:13.797Z,9.11
2022-11-05T04:09:02.692Z,9
2022-11-05T04:38:12.432Z,9.18
2022-11-05T05:07:10.123Z,9.45
2022-11-05T05:35:24.678Z,9.41
2022-11-05T06:03:39.998Z,9.28
2022-11-05T06:32:00.390Z,9.11
2022-11-05T07:00:26.410Z,9.23
2022-11-05T07:28:47.796Z,9.54
2022-11-05T07:57:02.861Z,9.85
2022-11-05T08:25:16.170Z,10.12
2022-11-05T08:53:35.011Z,10.12
2022-11-05T09:22:06.401Z,10.51
2022-11-05T09:50:14.766Z,10.37
2022-11-05T10:19:15.286Z,11.93
2022-11-05T10:48:04.611Z,12.4
2022-11-05T11:16:54.444Z,12.44
2022-11-05T11:45:44.008Z,13.04
2022-11-05T12:14:47.034Z,12.54
2022-11-05T12:43:12.552Z,11.64
2022-11-05T13:11:45.894Z,11.75
2022-11-05T13:40:20.084Z,12.17
2022-11-05T14:09:17.113Z,12.11
2022-11-05T14:38:08.808Z,11.62
2022-11-05T15:07:03.656Z,11.71
2022-11-05T15:35:16.753Z,10.67
2022-11-05T16:03:32.769Z,10.17
2022-11-05T16:31:40.751Z,9.52
2022-11-05T16:59:54.668Z,8.88
2022-11-05T17:28:16.198Z,8.89
2022-11-05T17:56:34.343Z,8.25
2022-11-05T18:24:29.137Z,8.15
2022-11-05T18:52:42.222Z,8.32
2022-11-05T19:21:19.513Z,8.04
2022-11-05T19:50:10.397Z,7.77
2022-11-05T20:18:48.326Z,7.54
2022-11-05T20:46:53.889Z,7.3
2022-11-05T21:15:07.914Z,7.19
2022-11-05T21:44:00.328Z,7.03
2022-11-05T22:12:52.494Z,6.82
2022-11-05T22:41:40.562Z,6.72
2022-11-05T23:10:27.127Z,6.7
2022-11-05T23:39:20.000Z,6.49
